This is the latest recevied weather packets stored in our database for station/object IT9DBI-3. If no packets are shown the sender has not sent any weather packets the latest 10 day(s).
| Time | Temp. | Humidity | Pressure | Rain* | Wind** | Luminosity | Snow |
|---|---|---|---|---|---|---|---|
| 1787956691 | 33.89° C | 23% | 1013.9 hPa | - | - | - | - |
| 1787955491 | 31.67° C | 30% | 1013.7 hPa | - | - | - | - |
| 1787954288 | 32.78° C | 30% | 1013.8 hPa | - | - | - | - |
| 1787953087 | 32.22° C | 30% | 1013.9 hPa | - | - | - | - |
| 1787951886 | 31.67° C | 31% | 1013.8 hPa | - | - | - | - |
| 1787950685 | 31.11° C | 33% | 1013.9 hPa | - | - | - | - |
| 1787949483 | 32.78° C | 30% | 1014 hPa | - | - | - | - |
| 1787948282 | 33.33° C | 30% | 1014 hPa | - | - | - | - |
| 1787947081 | 32.78° C | 31% | 1014.1 hPa | - | - | - | - |
| 1787945880 | 32.22° C | 32% | 1014.1 hPa | - | - | - | - |
| 1787944678 | 31.67° C | 32% | 1014.3 hPa | - | - | - | - |
| 1787943484 | 32.78° C | 31% | 1014.2 hPa | - | - | - | - |
| 1787942276 | 32.22° C | 32% | 1014 hPa | - | - | - | - |
| 1787941074 | 32.78° C | 32% | 1013.9 hPa | - | - | - | - |
| 1787939873 | 33.33° C | 32% | 1013.9 hPa | - | - | - | - |
| 1787938672 | 34.44° C | 28% | 1013.7 hPa | - | - | - | - |
| 1787937470 | 33.89° C | 28% | 1013.5 hPa | - | - | - | - |
| 1787936269 | 35.56° C | 27% | 1013.4 hPa | - | - | - | - |
| 1787935068 | 36.11° C | 28% | 1013.6 hPa | - | - | - | - |
| 1787933867 | 36.11° C | 27% | 1013.7 hPa | - | - | - | - |
| 1787932665 | 37.78° C | 24% | 1013.9 hPa | - | - | - | - |
| 1787931464 | 39.44° C | 25% | 1013.6 hPa | - | - | - | - |
| 1787930262 | 41.11° C | 23% | 1013.4 hPa | - | - | - | - |
| 1787929061 | 41.67° C | 23% | 1013.3 hPa | - | - | - | - |
| 1787927860 | 41.67° C | 24% | 1013.5 hPa | - | - | - | - |
* Rain since midnight (hover to see other rain measurements)
** Current wind speed in m/s (hover to see current wind gust speed)